createdAt,value
2023-03-06T00:01:19.197Z,-1.22
2023-03-06T00:03:48.699Z,-1.27
2023-03-06T00:06:17.699Z,-1.33
2023-03-06T00:08:46.059Z,-1.38
2023-03-06T00:11:15.128Z,-1.46
2023-03-06T00:13:43.204Z,-1.47
2023-03-06T00:16:13.434Z,-1.45
2023-03-06T00:18:44.371Z,-1.39
2023-03-06T00:21:16.322Z,-1.37
2023-03-06T00:23:46.520Z,-1.37
2023-03-06T00:26:15.150Z,-1.37
2023-03-06T00:28:46.072Z,-1.37
2023-03-06T00:31:16.312Z,-1.36
2023-03-06T00:33:46.173Z,-1.34
2023-03-06T00:36:58.505Z,-1.32
2023-03-06T00:39:26.474Z,-1.24
2023-03-06T00:41:56.273Z,-1.24
2023-03-06T00:44:24.844Z,-1.21
2023-03-06T00:46:56.878Z,-1.28
2023-03-06T00:49:26.173Z,-1.38
2023-03-06T00:51:54.694Z,-1.47
2023-03-06T00:54:22.964Z,-1.51
2023-03-06T00:56:52.197Z,-1.58
2023-03-06T00:59:20.416Z,-1.65
2023-03-06T01:01:53.434Z,-1.74
2023-03-06T01:04:22.671Z,-1.81
2023-03-06T01:06:52.844Z,-1.84
2023-03-06T01:09:22.396Z,-1.86
2023-03-06T01:11:50.800Z,-1.88
2023-03-06T01:14:21.132Z,-1.92
2023-03-06T01:16:49.823Z,-1.96
2023-03-06T01:19:20.155Z,-1.98
2023-03-06T01:21:48.985Z,-2.06
2023-03-06T01:24:17.513Z,-2.07
2023-03-06T01:26:49.486Z,-2.07
2023-03-06T01:29:17.705Z,-2.12
2023-03-06T01:31:45.900Z,-2.17
2023-03-06T01:34:13.978Z,-2.23
2023-03-06T01:36:45.130Z,-2.22
2023-03-06T01:39:13.400Z,-2.23
2023-03-06T01:41:46.345Z,-2.22
2023-03-06T01:44:15.539Z,-2.26
2023-03-06T01:46:45.541Z,-2.27
2023-03-06T01:49:23.148Z,-2.35
2023-03-06T01:52:07.787Z,-2.35
2023-03-06T01:54:42.917Z,-2.38
2023-03-06T01:57:35.037Z,-2.41
2023-03-06T02:00:22.576Z,-2.39
2023-03-06T02:02:56.411Z,-2.42
2023-03-06T02:05:25.453Z,-2.44
2023-03-06T02:08:17.338Z,-2.48
2023-03-06T02:11:16.441Z,-2.49
2023-03-06T02:13:46.547Z,-2.46
2023-03-06T02:16:15.026Z,-2.48
2023-03-06T02:18:44.853Z,-2.51
2023-03-06T02:21:25.489Z,-2.56
2023-03-06T02:24:02.307Z,-2.53
2023-03-06T02:26:30.882Z,-2.55
2023-03-06T02:28:59.765Z,-2.59
2023-03-06T02:31:29.989Z,-2.58
2023-03-06T02:34:04.964Z,-2.59
2023-03-06T02:36:36.388Z,-2.56
2023-03-06T02:39:04.632Z,-2.58
2023-03-06T02:41:32.889Z,-2.63
2023-03-06T02:44:01.230Z,-2.64
2023-03-06T02:46:30.196Z,-2.64
2023-03-06T02:48:58.370Z,-2.64
2023-03-06T02:51:34.012Z,-2.67
2023-03-06T02:54:02.320Z,-2.71
2023-03-06T02:56:30.487Z,-2.74
2023-03-06T02:58:58.966Z,-2.76
2023-03-06T03:01:27.415Z,-2.79
2023-03-06T03:03:56.055Z,-2.82
2023-03-06T03:06:23.963Z,-2.83
2023-03-06T03:08:52.464Z,-2.82
2023-03-06T03:11:23.206Z,-2.83
2023-03-06T03:13:51.748Z,-2.85
2023-03-06T03:16:19.870Z,-2.86
2023-03-06T03:18:53.481Z,-2.84
2023-03-06T03:21:21.551Z,-2.85
2023-03-06T03:23:50.025Z,-2.86
2023-03-06T03:26:20.561Z,-2.87
2023-03-06T03:28:49.188Z,-2.89
2023-03-06T03:31:20.027Z,-2.91
2023-03-06T03:33:48.447Z,-2.91
2023-03-06T03:36:16.587Z,-2.89
2023-03-06T03:38:45.175Z,-2.89
2023-03-06T03:41:14.790Z,-2.88
2023-03-06T03:43:43.720Z,-2.87
2023-03-06T03:46:11.881Z,-2.84
2023-03-06T03:48:40.851Z,-2.84
2023-03-06T03:51:11.034Z,-2.84
2023-03-06T03:53:39.202Z,-2.83
2023-03-06T03:56:07.354Z,-2.90
2023-03-06T03:58:39.764Z,-2.87
2023-03-06T04:01:08.263Z,-2.88
2023-03-06T04:03:36.451Z,-2.86
2023-03-06T04:06:04.567Z,-2.84
2023-03-06T04:08:35.530Z,-2.83
2023-03-06T04:11:03.993Z,-2.81
2023-03-06T04:13:31.971Z,-2.79
2023-03-06T04:16:01.193Z,-2.72
2023-03-06T04:18:29.922Z,-2.65
2023-03-06T04:20:58.606Z,-2.61
2023-03-06T04:23:28.333Z,-2.56
2023-03-06T04:25:56.613Z,-2.51
2023-03-06T04:28:30.172Z,-2.42
2023-03-06T04:30:59.918Z,-2.26
2023-03-06T04:33:28.350Z,-2.11
2023-03-06T04:35:56.300Z,-1.86
2023-03-06T04:38:24.267Z,-0.43
2023-03-06T04:40:55.220Z,1.62
2023-03-06T04:43:23.449Z,3.30
2023-03-06T04:45:54.078Z,4.90
2023-03-06T04:48:22.133Z,6.07
2023-03-06T04:50:50.464Z,6.88
2023-03-06T04:53:21.683Z,8.16
2023-03-06T04:55:50.547Z,8.83
2023-03-06T04:58:19.438Z,9.28
2023-03-06T05:00:47.676Z,9.40
2023-03-06T05:03:15.617Z,9.99
2023-03-06T05:05:46.801Z,10.39
2023-03-06T05:08:15.890Z,10.84
2023-03-06T05:10:45.738Z,10.87
2023-03-06T05:13:14.918Z,11.40
2023-03-06T05:15:43.288Z,12.10
2023-03-06T05:18:13.298Z,12.73
2023-03-06T05:20:47.511Z,12.61
2023-03-06T05:23:15.921Z,11.79
2023-03-06T05:25:44.574Z,10.35
2023-03-06T05:28:13.997Z,8.87
2023-03-06T05:30:44.553Z,7.78
2023-03-06T05:33:12.678Z,6.98
2023-03-06T05:35:49.470Z,6.66
2023-03-06T05:38:19.139Z,6.32
2023-03-06T05:40:49.183Z,5.96
2023-03-06T05:43:17.093Z,5.50
2023-03-06T05:45:45.484Z,5.54
2023-03-06T05:48:14.271Z,4.92
2023-03-06T05:50:42.924Z,4.61
2023-03-06T05:53:12.727Z,4.55
2023-03-06T05:55:40.903Z,4.52
2023-03-06T05:58:09.175Z,4.63
2023-03-06T06:00:40.068Z,4.23
2023-03-06T06:03:08.221Z,4.28
2023-03-06T06:05:40.309Z,4.24
2023-03-06T06:08:08.325Z,4.09
2023-03-06T06:10:36.064Z,3.93
2023-03-06T06:13:04.088Z,3.96
2023-03-06T06:15:32.318Z,3.98
2023-03-06T06:18:04.880Z,4.14
2023-03-06T06:20:33.030Z,4.14
2023-03-06T06:23:01.632Z,4.34
2023-03-06T06:25:29.795Z,4.31
2023-03-06T06:27:58.299Z,4.41
2023-03-06T06:30:26.119Z,4.35
2023-03-06T06:32:54.296Z,4.39
2023-03-06T06:35:22.666Z,4.47
2023-03-06T06:37:50.704Z,4.67
2023-03-06T06:40:19.026Z,4.97
2023-03-06T06:42:47.628Z,5.21
2023-03-06T06:45:15.719Z,5.32
2023-03-06T06:47:44.915Z,5.43
2023-03-06T06:50:14.588Z,5.51
2023-03-06T06:52:43.418Z,5.56
2023-03-06T06:55:18.243Z,5.71
2023-03-06T06:57:46.591Z,5.84
2023-03-06T07:00:18.073Z,5.92
2023-03-06T07:02:51.747Z,6.07
2023-03-06T07:05:21.128Z,6.13
2023-03-06T07:07:53.471Z,6.27
2023-03-06T07:10:21.519Z,6.48
2023-03-06T07:12:49.887Z,6.62
2023-03-06T07:15:18.569Z,6.87
2023-03-06T07:17:48.931Z,6.87
2023-03-06T07:20:20.028Z,6.98
2023-03-06T07:23:16.606Z,7.14
2023-03-06T07:25:46.470Z,7.07
2023-03-06T07:28:14.813Z,7.14
2023-03-06T07:30:43.653Z,7.09
2023-03-06T07:33:13.715Z,7.12
2023-03-06T07:35:45.929Z,7.35
2023-03-06T07:38:19.376Z,7.36
2023-03-06T07:40:53.645Z,7.42
2023-03-06T07:43:24.364Z,7.53
2023-03-06T07:45:59.694Z,7.69
2023-03-06T07:48:28.399Z,7.74
2023-03-06T07:51:02.039Z,7.77
2023-03-06T07:53:30.155Z,7.70
2023-03-06T07:58:57.171Z,7.63
2023-03-06T08:01:27.560Z,7.62
2023-03-06T08:04:02.236Z,7.72
2023-03-06T08:06:30.678Z,8.07
2023-03-06T08:08:59.804Z,8.31
2023-03-06T08:11:31.999Z,8.62
2023-03-06T08:14:04.460Z,8.89
2023-03-06T08:16:38.322Z,8.99
2023-03-06T08:19:07.112Z,9.04
2023-03-06T08:21:38.853Z,9.10
2023-03-06T08:24:08.287Z,8.84
2023-03-06T08:26:37.546Z,8.82
2023-03-06T08:29:06.374Z,8.58
2023-03-06T08:31:37.715Z,8.52
2023-03-06T08:34:12.625Z,8.47
2023-03-06T08:36:44.111Z,8.51
2023-03-06T08:39:14.433Z,8.48
2023-03-06T08:41:43.603Z,8.50
2023-03-06T08:44:14.473Z,8.43
2023-03-06T08:46:42.827Z,8.25
2023-03-06T08:49:15.519Z,7.97
2023-03-06T08:51:47.700Z,8.03
2023-03-06T08:54:20.262Z,7.73
2023-03-06T08:56:48.616Z,7.61
2023-03-06T08:59:16.268Z,7.44
2023-03-06T09:01:45.431Z,7.19
2023-03-06T09:04:33.131Z,7.31
2023-03-06T09:07:02.128Z,7.48
2023-03-06T09:09:30.625Z,7.60
2023-03-06T09:12:01.619Z,7.64
2023-03-06T09:14:32.549Z,7.90
2023-03-06T09:17:00.682Z,8.17
2023-03-06T09:19:28.757Z,8.27
2023-03-06T09:21:58.257Z,8.27
2023-03-06T09:24:28.389Z,8.24
2023-03-06T09:26:58.680Z,8.16
2023-03-06T09:29:26.884Z,8.19
2023-03-06T09:31:58.848Z,8.12
2023-03-06T09:34:27.993Z,8.20
2023-03-06T09:37:05.163Z,8.44
2023-03-06T09:39:33.576Z,8.42
2023-03-06T09:42:02.360Z,8.53
2023-03-06T09:44:32.197Z,8.54
2023-03-06T09:47:25.855Z,8.64
2023-03-06T09:50:19.065Z,8.66
2023-03-06T09:52:53.604Z,8.71
2023-03-06T09:55:28.735Z,9.02
2023-03-06T09:58:09.850Z,8.94
2023-03-06T10:00:42.232Z,9.03
2023-03-06T10:03:40.205Z,9.02
2023-03-06T10:06:23.528Z,9.07
2023-03-06T10:09:22.173Z,9.19
2023-03-06T10:11:59.866Z,9.25
2023-03-06T10:14:34.882Z,9.31
2023-03-06T10:17:03.350Z,9.47
2023-03-06T10:19:36.862Z,9.18
2023-03-06T10:22:20.764Z,9.27
2023-03-06T10:25:16.773Z,9.39
2023-03-06T10:27:56.589Z,9.72
2023-03-06T10:30:46.062Z,9.77
2023-03-06T10:33:43.574Z,9.71
2023-03-06T10:36:19.401Z,9.52
2023-03-06T10:38:48.963Z,9.54
2023-03-06T10:41:27.732Z,9.53
2023-03-06T10:44:01.776Z,9.62
2023-03-06T10:46:47.560Z,9.46
2023-03-06T10:49:30.200Z,9.38
2023-03-06T10:52:05.949Z,9.34
2023-03-06T10:54:39.230Z,9.25
2023-03-06T10:57:31.593Z,9.22
2023-03-06T11:00:04.832Z,9.09
2023-03-06T11:02:37.264Z,8.97
2023-03-06T11:05:19.606Z,8.65
2023-03-06T11:07:57.849Z,8.62
2023-03-06T11:10:26.956Z,8.49
2023-03-06T11:13:07.993Z,8.77
2023-03-06T11:15:36.146Z,8.86
2023-03-06T11:18:29.040Z,8.70
2023-03-06T11:20:58.113Z,8.85
2023-03-06T11:23:40.349Z,9.01
2023-03-06T11:26:17.843Z,8.83
2023-03-06T11:29:29.469Z,8.79
2023-03-06T11:32:13.873Z,8.72
2023-03-06T11:35:02.718Z,8.70
2023-03-06T11:37:48.267Z,8.79
2023-03-06T11:40:59.547Z,8.83
2023-03-06T11:43:37.395Z,8.79
2023-03-06T11:46:18.088Z,8.82
2023-03-06T11:48:56.827Z,8.69
2023-03-06T11:51:31.195Z,8.68
2023-03-06T11:54:01.593Z,8.71
2023-03-06T11:56:45.232Z,8.70
2023-03-06T11:59:31.760Z,8.67
2023-03-06T12:02:07.728Z,8.72
2023-03-06T12:04:53.139Z,8.73
2023-03-06T12:07:31.568Z,8.84
2023-03-06T12:10:30.345Z,8.91
2023-03-06T12:13:11.558Z,9.00
2023-03-06T12:16:04.312Z,9.09
2023-03-06T12:18:38.873Z,9.19
2023-03-06T12:21:43.796Z,9.18
2023-03-06T12:24:44.086Z,9.03
2023-03-06T12:27:17.528Z,8.98
2023-03-06T12:30:25.821Z,8.79
2023-03-06T12:33:19.460Z,8.80
2023-03-06T12:36:21.644Z,8.96
2023-03-06T12:39:11.713Z,8.79
2023-03-06T12:42:06.735Z,8.71
2023-03-06T12:44:48.162Z,8.69
2023-03-06T12:47:31.339Z,8.59
2023-03-06T12:50:04.907Z,8.65
2023-03-06T12:52:34.915Z,8.64
2023-03-06T12:55:08.585Z,8.78
2023-03-06T12:57:37.977Z,8.71
2023-03-06T13:00:08.803Z,8.49
2023-03-06T13:02:48.194Z,8.27
2023-03-06T13:05:44.493Z,8.30
2023-03-06T13:09:07.911Z,8.44
2023-03-06T13:11:48.612Z,8.40
2023-03-06T13:14:24.885Z,8.20
2023-03-06T13:16:56.284Z,8.12
2023-03-06T13:19:28.542Z,8.07
2023-03-06T13:21:56.764Z,7.94
2023-03-06T13:24:27.838Z,7.91
2023-03-06T13:27:06.829Z,7.85
2023-03-06T13:29:38.776Z,7.83
2023-03-06T13:32:17.024Z,7.78
2023-03-06T13:34:50.495Z,7.78
2023-03-06T13:37:36.560Z,7.77
2023-03-06T13:40:05.357Z,7.68
2023-03-06T13:42:38.314Z,7.59
2023-03-06T13:45:15.048Z,7.50
2023-03-06T13:48:21.147Z,7.48
2023-03-06T13:50:52.079Z,7.46
2023-03-06T13:53:42.825Z,7.41
2023-03-06T13:56:36.064Z,7.33
2023-03-06T13:59:39.827Z,7.16
2023-03-06T14:02:39.481Z,7.02
2023-03-06T14:05:14.552Z,6.93
2023-03-06T14:07:44.849Z,6.79
2023-03-06T14:10:26.713Z,6.77
2023-03-06T14:13:05.126Z,6.69
2023-03-06T14:15:52.948Z,6.65
2023-03-06T14:18:39.048Z,6.57
2023-03-06T14:21:34.336Z,6.48
2023-03-06T14:24:04.587Z,6.48
2023-03-06T14:26:35.133Z,6.50
2023-03-06T14:29:04.215Z,6.48
2023-03-06T14:31:35.627Z,6.50
2023-03-06T14:34:06.399Z,6.46
2023-03-06T14:36:46.596Z,6.43
2023-03-06T14:39:33.892Z,6.41
2023-03-06T14:42:29.768Z,6.39
2023-03-06T14:45:17.630Z,6.35
2023-03-06T14:47:53.309Z,6.27
2023-03-06T14:50:27.127Z,6.21
2023-03-06T14:53:08.351Z,6.12
2023-03-06T14:55:37.022Z,6.00
2023-03-06T14:58:12.944Z,5.87
2023-03-06T15:00:46.652Z,5.76
2023-03-06T15:03:20.621Z,5.64
2023-03-06T15:05:51.792Z,5.58
2023-03-06T15:08:27.120Z,5.48
2023-03-06T15:11:06.747Z,5.37
2023-03-06T15:13:37.242Z,5.29
2023-03-06T15:16:29.917Z,5.29
2023-03-06T15:19:04.145Z,5.19
2023-03-06T15:21:38.514Z,5.11
2023-03-06T15:24:35.932Z,5.06
2023-03-06T15:27:07.827Z,4.99
2023-03-06T15:29:39.378Z,4.93
2023-03-06T15:32:16.410Z,4.84
2023-03-06T15:34:44.545Z,4.83
2023-03-06T15:37:29.045Z,4.79
2023-03-06T15:40:09.514Z,4.77
2023-03-06T15:42:38.387Z,4.74
2023-03-06T15:45:22.039Z,4.69
2023-03-06T15:47:56.061Z,4.66
2023-03-06T15:50:27.511Z,4.64
2023-03-06T15:52:56.909Z,4.64
2023-03-06T15:55:28.904Z,4.64
2023-03-06T15:58:01.166Z,4.61
2023-03-06T16:00:40.419Z,4.53
2023-03-06T16:03:10.967Z,4.48
2023-03-06T16:05:39.161Z,4.41
2023-03-06T16:08:07.630Z,4.43
2023-03-06T16:10:39.590Z,4.44
2023-03-06T16:13:32.413Z,4.43
2023-03-06T16:16:00.400Z,4.45
2023-03-06T16:18:37.961Z,4.46
2023-03-06T16:21:06.824Z,4.48
2023-03-06T16:23:39.136Z,4.51
2023-03-06T16:26:36.739Z,4.52
2023-03-06T16:29:05.185Z,4.51
2023-03-06T16:31:33.204Z,4.50
2023-03-06T16:34:04.590Z,4.52
2023-03-06T16:36:34.914Z,4.54
2023-03-06T16:39:04.469Z,4.54
2023-03-06T16:41:38.128Z,4.55
2023-03-06T16:44:08.041Z,4.55
2023-03-06T16:46:44.456Z,4.55
2023-03-06T16:49:25.478Z,4.56
2023-03-06T16:51:54.562Z,4.56
2023-03-06T16:54:26.366Z,4.55
2023-03-06T16:56:55.153Z,4.57
2023-03-06T16:59:25.317Z,4.57
2023-03-06T17:01:53.665Z,4.52
2023-03-06T17:04:21.729Z,4.54
2023-03-06T17:06:55.755Z,4.50
2023-03-06T17:09:24.919Z,4.44
2023-03-06T17:11:53.510Z,4.42
2023-03-06T17:14:21.650Z,4.41
2023-03-06T17:16:49.430Z,4.43
2023-03-06T17:19:20.236Z,4.37
2023-03-06T17:21:48.458Z,4.41
2023-03-06T17:24:16.391Z,4.40
2023-03-06T17:26:47.285Z,4.41
2023-03-06T17:29:15.729Z,4.30
2023-03-06T17:31:44.143Z,4.33
2023-03-06T17:34:12.423Z,4.35
2023-03-06T17:36:41.437Z,4.35
2023-03-06T17:39:13.549Z,4.32
2023-03-06T17:41:46.370Z,4.32
2023-03-06T17:44:20.508Z,4.34
2023-03-06T17:46:50.452Z,4.32
2023-03-06T17:49:19.782Z,4.30
2023-03-06T17:51:47.699Z,4.32
2023-03-06T17:54:16.347Z,4.30
2023-03-06T17:56:47.558Z,4.21
2023-03-06T17:59:15.744Z,4.27
2023-03-06T18:01:47.155Z,4.22
2023-03-06T18:04:15.364Z,4.18
2023-03-06T18:06:43.596Z,4.15
2023-03-06T18:09:14.698Z,4.17
2023-03-06T18:11:46.192Z,4.17
2023-03-06T18:14:14.704Z,4.17
2023-03-06T18:16:54.134Z,4.13
2023-03-06T18:19:22.684Z,4.15
2023-03-06T18:21:51.025Z,4.12
2023-03-06T18:27:14.193Z,4.07
2023-03-06T18:29:43.556Z,4.04
2023-03-06T18:32:14.703Z,4.04
2023-03-06T18:34:42.760Z,4.06
2023-03-06T18:37:16.620Z,4.05
2023-03-06T18:39:45.483Z,4.05
2023-03-06T18:42:16.078Z,4.04
2023-03-06T18:44:49.541Z,4.03
2023-03-06T18:47:17.831Z,4.00
2023-03-06T18:49:46.316Z,4.03
2023-03-06T18:52:15.452Z,4.04
2023-03-06T18:54:45.397Z,4.04
2023-03-06T18:57:13.531Z,4.03
2023-03-06T18:59:59.573Z,3.96
2023-03-06T19:02:32.554Z,3.93
2023-03-06T19:05:00.983Z,3.92
2023-03-06T19:07:29.204Z,3.91
2023-03-06T19:09:57.570Z,3.95
2023-03-06T19:12:28.782Z,3.93
2023-03-06T19:14:57.142Z,3.92
2023-03-06T19:17:25.434Z,3.90
2023-03-06T19:19:55.766Z,3.88
2023-03-06T19:22:24.541Z,3.86
2023-03-06T19:24:55.457Z,3.84
2023-03-06T19:27:23.655Z,3.77
2023-03-06T19:29:51.793Z,3.72
2023-03-06T19:32:20.156Z,3.68
2023-03-06T19:34:49.997Z,3.66
2023-03-06T19:37:21.032Z,3.67
2023-03-06T19:39:49.207Z,3.65
2023-03-06T19:42:20.199Z,3.65
2023-03-06T19:44:48.359Z,3.68
2023-03-06T19:47:18.338Z,3.69
2023-03-06T19:49:47.139Z,3.72
2023-03-06T19:52:15.634Z,3.75
2023-03-06T19:54:47.769Z,3.79
2023-03-06T19:57:16.643Z,3.79
2023-03-06T19:59:52.085Z,3.85
2023-03-06T20:02:27.188Z,3.88
2023-03-06T20:04:56.027Z,3.86
2023-03-06T20:07:27.438Z,3.87
2023-03-06T20:10:03.328Z,3.80
2023-03-06T20:12:33.512Z,3.78
2023-03-06T20:15:02.398Z,3.72
2023-03-06T20:17:34.087Z,3.74
2023-03-06T20:20:03.243Z,3.71
2023-03-06T20:22:34.256Z,3.67
2023-03-06T20:25:06.857Z,3.65
2023-03-06T20:27:35.371Z,3.62
2023-03-06T20:30:03.984Z,3.68
2023-03-06T20:32:36.537Z,3.68
2023-03-06T20:35:05.402Z,3.70
2023-03-06T20:37:35.001Z,3.68
2023-03-06T20:40:03.991Z,3.67
2023-03-06T20:42:32.640Z,3.69
2023-03-06T20:45:01.173Z,3.68
2023-03-06T20:47:30.849Z,3.64
2023-03-06T20:49:59.428Z,3.59
2023-03-06T20:52:29.440Z,3.53
2023-03-06T20:54:57.803Z,3.49
2023-03-06T20:57:25.917Z,3.49
2023-03-06T20:59:56.738Z,3.46
2023-03-06T21:02:24.940Z,3.48
2023-03-06T21:04:53.309Z,3.53
2023-03-06T21:07:21.592Z,3.58
2023-03-06T21:09:52.769Z,3.64
2023-03-06T21:12:23.807Z,3.69
2023-03-06T21:14:52.174Z,3.67
2023-03-06T21:17:25.901Z,3.67
2023-03-06T21:19:54.199Z,3.66
2023-03-06T21:22:30.811Z,3.62
2023-03-06T21:25:00.005Z,3.62
2023-03-06T21:27:28.744Z,3.61
2023-03-06T21:29:57.428Z,3.62
2023-03-06T21:32:26.352Z,3.63
2023-03-06T21:34:54.605Z,3.64
2023-03-06T21:37:22.863Z,3.56
2023-03-06T21:39:50.920Z,3.54
2023-03-06T21:42:21.353Z,3.49
2023-03-06T21:44:49.354Z,3.46
2023-03-06T21:47:17.490Z,3.42
2023-03-06T21:49:49.470Z,3.36
2023-03-06T21:52:21.041Z,3.29
2023-03-06T21:54:49.899Z,3.26
2023-03-06T21:57:20.934Z,3.24
2023-03-06T21:59:49.555Z,3.17
2023-03-06T22:02:18.237Z,3.17
2023-03-06T22:04:50.671Z,3.19
2023-03-06T22:07:20.547Z,3.21
2023-03-06T22:09:55.752Z,3.20
2023-03-06T22:12:26.907Z,3.21
2023-03-06T22:14:55.253Z,3.21
2023-03-06T22:17:24.355Z,3.21
2023-03-06T22:19:52.957Z,3.22
2023-03-06T22:22:23.110Z,3.26
2023-03-06T22:24:52.158Z,3.32
2023-03-06T22:27:20.224Z,3.37
2023-03-06T22:29:48.406Z,3.41
2023-03-06T22:32:17.102Z,3.42
2023-03-06T22:34:45.379Z,3.45
2023-03-06T22:37:33.620Z,3.51
2023-03-06T22:40:02.457Z,3.52
2023-03-06T22:42:31.009Z,3.57
2023-03-06T22:45:07.029Z,3.60
2023-03-06T22:47:38.655Z,3.62
2023-03-06T22:50:07.363Z,3.62
2023-03-06T22:52:38.582Z,3.61
2023-03-06T22:55:10.741Z,3.62
2023-03-06T22:57:44.729Z,3.62
2023-03-06T23:00:15.033Z,3.64
2023-03-06T23:02:44.424Z,3.66
2023-03-06T23:05:13.809Z,3.67
2023-03-06T23:07:44.266Z,3.67
2023-03-06T23:10:12.914Z,3.64
2023-03-06T23:12:42.135Z,3.68
2023-03-06T23:15:11.074Z,3.69
2023-03-06T23:17:40.264Z,3.70
2023-03-06T23:20:10.502Z,3.74
2023-03-06T23:22:38.484Z,3.74
2023-03-06T23:25:06.922Z,3.73
2023-03-06T23:27:36.243Z,3.75
2023-03-06T23:30:09.500Z,3.75
2023-03-06T23:32:37.828Z,3.74
2023-03-06T23:35:07.909Z,3.75
2023-03-06T23:37:39.008Z,3.77
2023-03-06T23:40:09.738Z,3.74
2023-03-06T23:42:38.887Z,3.73
2023-03-06T23:45:08.192Z,3.73
2023-03-06T23:47:37.867Z,3.71
2023-03-06T23:50:06.840Z,3.70
2023-03-06T23:52:38.891Z,3.66
2023-03-06T23:55:07.781Z,3.65
2023-03-06T23:57:35.978Z,3.66
